createdAt,value
2018-06-23T00:00:12.325Z,73.04
2018-06-23T00:02:42.616Z,73.12
2018-06-23T00:05:13.028Z,72.74
2018-06-23T00:07:43.262Z,73.45
2018-06-23T00:10:13.290Z,73.87
2018-06-23T00:12:43.388Z,72.72
2018-06-23T00:15:13.351Z,72.42
2018-06-23T00:17:43.356Z,72.75
2018-06-23T00:20:13.311Z,70.87
2018-06-23T00:22:43.225Z,71.08
2018-06-23T00:25:19.583Z,70.31
2018-06-23T00:27:50.103Z,69.67
2018-06-23T00:30:20.032Z,68.99
2018-06-23T00:32:49.936Z,68.08
2018-06-23T00:35:19.931Z,68.16
2018-06-23T00:37:50.032Z,68.89
2018-06-23T00:40:20.184Z,69.25
2018-06-23T00:42:50.213Z,68.63
2018-06-23T00:45:20.424Z,68.09
2018-06-23T00:47:50.416Z,69.39
2018-06-23T00:50:20.415Z,69.81
2018-06-23T00:52:50.626Z,69.66
2018-06-23T00:55:20.853Z,69.36
2018-06-23T00:57:50.964Z,69.75
2018-06-23T01:00:20.900Z,69.75
2018-06-23T01:02:50.782Z,70.26
2018-06-23T01:05:20.782Z,70.44
2018-06-23T01:07:50.759Z,70.58
2018-06-23T01:10:21.096Z,70.61
2018-06-23T01:12:50.991Z,70.40
2018-06-23T01:15:21.355Z,70.89
2018-06-23T01:17:51.519Z,71.05
2018-06-23T01:20:21.946Z,70.84
2018-06-23T01:22:51.956Z,70.34
2018-06-23T01:25:22.399Z,70.91
2018-06-23T01:27:52.292Z,69.90
2018-06-23T01:30:22.281Z,69.64
2018-06-23T01:32:53.238Z,70.65
2018-06-23T01:35:23.295Z,70.56
2018-06-23T01:37:53.349Z,70.43
2018-06-23T01:40:23.217Z,70.18
2018-06-23T01:42:53.484Z,70.23
2018-06-23T01:45:23.796Z,70.00
2018-06-23T01:47:53.903Z,70.31
2018-06-23T01:50:23.743Z,70.58
2018-06-23T01:52:54.016Z,70.78
2018-06-23T01:55:23.865Z,71.27
2018-06-23T01:57:53.853Z,70.60
2018-06-23T02:00:24.081Z,70.60
2018-06-23T02:02:54.321Z,71.50
2018-06-23T02:05:24.272Z,71.46
2018-06-23T02:07:54.205Z,72.18
2018-06-23T02:10:24.467Z,72.95
2018-06-23T02:12:54.691Z,72.20
2018-06-23T02:15:29.795Z,73.22
2018-06-23T02:18:04.804Z,73.03
2018-06-23T02:20:40.084Z,72.78
2018-06-23T02:25:20.215Z,73.61
2018-06-23T02:27:55.306Z,74.50
2018-06-23T02:32:31.171Z,74.60
2018-06-23T02:35:05.558Z,75.16
2018-06-23T02:37:37.721Z,75.81
2018-06-23T02:40:08.469Z,74.65
2018-06-23T02:42:38.516Z,75.78
2018-06-23T02:45:08.620Z,75.02
2018-06-23T02:47:38.564Z,75.77
2018-06-23T02:50:08.644Z,76.53
2018-06-23T02:55:07.209Z,75.81
2018-06-23T02:57:37.297Z,75.85
2018-06-23T03:00:07.201Z,75.52
2018-06-23T03:02:37.272Z,75.72
2018-06-23T03:05:07.293Z,76.52
2018-06-23T03:07:37.337Z,76.33
2018-06-23T03:10:07.254Z,76.60
2018-06-23T03:12:37.609Z,75.96
2018-06-23T03:15:07.548Z,75.91
2018-06-23T03:17:37.720Z,77.08
2018-06-23T03:20:07.648Z,77.98
2018-06-23T03:22:37.767Z,78.25
2018-06-23T03:25:07.803Z,78.82
2018-06-23T03:27:37.714Z,79.18
2018-06-23T03:30:08.786Z,78.23
2018-06-23T03:32:39.062Z,79.53
2018-06-23T03:35:09.200Z,80.33
2018-06-23T03:37:39.252Z,79.79
2018-06-23T03:40:09.505Z,80.02
2018-06-23T03:42:39.528Z,79.34
2018-06-23T03:45:09.678Z,79.67
2018-06-23T03:47:39.638Z,80.24
2018-06-23T03:50:09.944Z,80.71
2018-06-23T03:52:39.941Z,79.71
2018-06-23T03:55:09.887Z,79.09
2018-06-23T03:57:39.925Z,77.32
2018-06-23T04:00:09.883Z,74.94
2018-06-23T04:02:39.906Z,73.60
2018-06-23T04:05:10.159Z,73.08
2018-06-23T04:07:40.569Z,71.73
2018-06-23T04:10:10.528Z,71.36
2018-06-23T04:12:40.491Z,71.37
2018-06-23T04:15:10.537Z,71.05
2018-06-23T04:17:41.057Z,71.27
2018-06-23T04:20:11.115Z,69.45
2018-06-23T04:22:41.025Z,70.29
2018-06-23T04:25:11.837Z,68.87
2018-06-23T04:27:42.365Z,66.73
2018-06-23T04:30:12.567Z,66.52
2018-06-23T04:32:42.452Z,66.37
2018-06-23T04:35:12.790Z,66.30
2018-06-23T04:37:42.668Z,66.33
2018-06-23T04:40:12.804Z,66.58
2018-06-23T04:42:42.683Z,67.01
2018-06-23T04:45:13.196Z,67.32
2018-06-23T04:47:43.077Z,66.67
2018-06-23T04:50:13.390Z,67.07
2018-06-23T04:52:43.267Z,66.39
2018-06-23T04:55:13.672Z,64.65
2018-06-23T04:57:43.875Z,64.90
2018-06-23T05:00:13.904Z,65.45
2018-06-23T05:02:43.824Z,63.48
2018-06-23T05:05:13.837Z,66.71
2018-06-23T05:07:44.157Z,64.98
2018-06-23T05:10:14.316Z,65.48
2018-06-23T05:12:44.795Z,66.06
2018-06-23T05:15:14.932Z,66.27
2018-06-23T05:17:44.826Z,66.75
2018-06-23T05:20:15.355Z,65.32
2018-06-23T05:22:45.350Z,64.47
2018-06-23T05:25:15.671Z,64.76
2018-06-23T05:27:45.637Z,63.92
2018-06-23T05:30:15.970Z,63.49
2018-06-23T05:32:46.203Z,62.85
2018-06-23T05:35:16.099Z,62.65
2018-06-23T05:37:46.106Z,60.34
2018-06-23T05:40:16.167Z,61.22
2018-06-23T05:42:46.619Z,61.64
2018-06-23T05:45:16.580Z,61.78
2018-06-23T05:47:46.681Z,62.04
2018-06-23T05:50:16.889Z,61.38
2018-06-23T05:52:47.548Z,60.99
2018-06-23T05:55:17.553Z,59.64
2018-06-23T05:57:47.618Z,62.03
2018-06-23T06:00:17.551Z,62.18
2018-06-23T06:02:47.488Z,61.83
2018-06-23T06:05:17.460Z,59.39
2018-06-23T06:07:47.372Z,58.97
2018-06-23T06:10:17.612Z,60.11
2018-06-23T06:12:47.540Z,60.28
2018-06-23T06:15:17.461Z,59.20
2018-06-23T06:17:47.331Z,57.99
2018-06-23T06:20:17.657Z,58.32
2018-06-23T06:22:47.964Z,58.60
2018-06-23T06:25:19.951Z,58.68
2018-06-23T06:27:50.257Z,58.25
2018-06-23T06:30:20.220Z,58.35
2018-06-23T06:32:50.064Z,57.17
2018-06-23T06:35:19.911Z,56.23
2018-06-23T06:37:50.532Z,56.26
2018-06-23T06:40:20.433Z,56.19
2018-06-23T06:42:50.752Z,56.86
2018-06-23T06:45:20.724Z,56.46
2018-06-23T06:47:50.840Z,56.13
2018-06-23T06:50:22.416Z,55.56
2018-06-23T06:52:52.321Z,56.62
2018-06-23T06:55:22.229Z,55.88
2018-06-23T06:57:52.332Z,55.00
2018-06-23T07:00:22.376Z,54.79
2018-06-23T07:02:52.685Z,55.38
2018-06-23T07:05:22.581Z,54.81
2018-06-23T07:07:52.604Z,54.83
2018-06-23T07:10:24.368Z,54.70
2018-06-23T07:12:54.264Z,54.45
2018-06-23T07:15:24.256Z,54.59
2018-06-23T07:17:54.206Z,53.66
2018-06-23T07:20:24.349Z,53.27
2018-06-23T07:22:54.679Z,53.77
2018-06-23T07:25:25.024Z,53.69
2018-06-23T07:27:55.441Z,53.70
2018-06-23T07:30:25.393Z,54.20
2018-06-23T07:32:55.532Z,53.93
2018-06-23T07:35:25.439Z,54.38
2018-06-23T07:37:55.458Z,54.49
2018-06-23T07:40:25.734Z,54.17
2018-06-23T07:42:55.658Z,53.25
2018-06-23T07:45:25.601Z,52.69
2018-06-23T07:47:55.536Z,52.39
2018-06-23T07:50:26.134Z,52.29
2018-06-23T07:52:56.676Z,52.11
2018-06-23T07:55:26.780Z,52.17
2018-06-23T07:57:57.014Z,50.90
2018-06-23T08:00:27.243Z,51.22
2018-06-23T08:02:57.113Z,51.51
2018-06-23T08:05:27.121Z,51.03
2018-06-23T08:07:57.069Z,50.58
2018-06-23T08:10:27.124Z,50.73
2018-06-23T08:12:57.002Z,50.65
2018-06-23T08:15:26.929Z,48.79
2018-06-23T08:17:57.009Z,49.58
2018-06-23T08:20:27.124Z,49.39
2018-06-23T08:22:57.820Z,49.21
2018-06-23T08:25:28.085Z,50.60
2018-06-23T08:27:58.568Z,48.73
2018-06-23T08:30:28.975Z,50.03
2018-06-23T08:32:59.477Z,48.96
2018-06-23T08:35:29.335Z,49.13
2018-06-23T08:38:00.080Z,49.73
2018-06-23T08:40:30.211Z,47.51
2018-06-23T08:43:00.543Z,49.86
2018-06-23T08:45:30.409Z,48.97
2018-06-23T08:48:01.269Z,49.14
2018-06-23T08:50:31.542Z,49.65
2018-06-23T08:53:01.948Z,48.76
2018-06-23T08:55:32.337Z,48.98
2018-06-23T08:58:02.377Z,48.99
2018-06-23T09:00:32.345Z,47.43
2018-06-23T09:03:02.397Z,47.73
2018-06-23T09:05:32.280Z,47.58
2018-06-23T09:08:02.222Z,46.59
2018-06-23T09:10:32.393Z,47.79
2018-06-23T09:13:02.706Z,49.11
2018-06-23T09:15:32.624Z,48.62
2018-06-23T09:18:02.861Z,47.77
2018-06-23T09:20:32.832Z,47.96
2018-06-23T09:23:03.005Z,49.08
2018-06-23T09:25:33.299Z,47.69
2018-06-23T09:28:03.407Z,47.19
2018-06-23T09:30:33.597Z,47.61
2018-06-23T09:33:03.452Z,47.28
2018-06-23T09:35:33.484Z,47.85
2018-06-23T09:38:03.792Z,47.40
2018-06-23T09:40:33.940Z,47.09
2018-06-23T09:43:03.993Z,47.37
2018-06-23T09:45:34.024Z,47.58
2018-06-23T09:48:03.962Z,46.90
2018-06-23T09:50:33.931Z,45.94
2018-06-23T09:53:03.869Z,45.06
2018-06-23T09:55:34.040Z,44.15
2018-06-23T09:58:04.407Z,44.96
2018-06-23T10:00:34.328Z,45.82
2018-06-23T10:03:04.594Z,46.15
2018-06-23T10:05:34.814Z,45.56
2018-06-23T10:08:05.235Z,45.35
2018-06-23T10:10:35.143Z,45.41
2018-06-23T10:13:05.194Z,45.05
2018-06-23T10:15:35.438Z,42.26
2018-06-23T10:18:05.513Z,41.41
2018-06-23T10:20:35.787Z,41.65
2018-06-23T10:23:05.852Z,42.82
2018-06-23T10:25:35.943Z,42.15
2018-06-23T10:28:06.733Z,42.75
2018-06-23T10:30:36.684Z,42.54
2018-06-23T10:33:06.728Z,42.96
2018-06-23T10:35:36.621Z,43.01
2018-06-23T10:38:07.285Z,44.13
2018-06-23T10:40:37.281Z,43.74
2018-06-23T10:43:07.251Z,43.41
2018-06-23T10:45:37.153Z,43.60
2018-06-23T10:48:07.119Z,43.28
2018-06-23T10:50:36.982Z,44.70
2018-06-23T10:53:07.276Z,43.21
2018-06-23T10:55:37.185Z,43.71
2018-06-23T10:58:07.440Z,43.50
2018-06-23T11:00:37.451Z,43.30
2018-06-23T11:03:07.877Z,44.44
2018-06-23T11:05:37.892Z,43.72
2018-06-23T11:08:07.776Z,44.56
2018-06-23T11:10:37.975Z,45.61
2018-06-23T11:13:07.832Z,46.07
2018-06-23T11:15:38.308Z,46.10
2018-06-23T11:18:08.365Z,46.50
2018-06-23T11:20:39.636Z,46.83
2018-06-23T11:23:10.156Z,47.46
2018-06-23T11:25:40.154Z,45.57
2018-06-23T11:28:10.169Z,45.64
2018-06-23T11:30:40.049Z,47.48
2018-06-23T11:33:10.008Z,47.38
2018-06-23T11:35:39.865Z,47.37
2018-06-23T11:38:09.908Z,47.46
2018-06-23T11:40:40.800Z,46.47
2018-06-23T11:43:10.765Z,46.39
2018-06-23T11:45:40.578Z,47.98
2018-06-23T11:48:11.081Z,46.58
2018-06-23T11:50:41.371Z,47.41
2018-06-23T11:53:11.384Z,47.00
2018-06-23T11:55:41.246Z,47.13
2018-06-23T11:58:11.127Z,46.60
2018-06-23T12:00:41.099Z,46.50
2018-06-23T12:03:11.108Z,47.33
2018-06-23T12:05:41.150Z,46.18
2018-06-23T12:08:11.077Z,45.82
2018-06-23T12:10:41.445Z,45.87
2018-06-23T12:13:11.334Z,44.97
2018-06-23T12:15:41.341Z,46.11
2018-06-23T12:18:11.711Z,44.80
2018-06-23T12:20:41.759Z,45.00
2018-06-23T12:23:11.910Z,44.76
2018-06-23T12:25:41.852Z,43.42
2018-06-23T12:28:11.746Z,42.68
2018-06-23T12:30:41.793Z,43.52
2018-06-23T12:33:11.998Z,41.62
2018-06-23T12:35:42.300Z,40.72
2018-06-23T12:38:12.352Z,41.43
2018-06-23T12:40:42.710Z,42.96
2018-06-23T12:43:12.697Z,43.17
2018-06-23T12:45:42.687Z,40.70
2018-06-23T12:48:12.661Z,41.58
2018-06-23T12:50:42.560Z,40.69
2018-06-23T12:53:12.444Z,41.52
2018-06-23T12:55:42.661Z,40.97
2018-06-23T12:58:12.592Z,40.68
2018-06-23T13:00:43.029Z,41.57
2018-06-23T13:03:13.007Z,42.33
2018-06-23T13:05:42.869Z,43.17
2018-06-23T13:08:13.560Z,43.12
2018-06-23T13:10:43.673Z,43.02
2018-06-23T13:13:13.994Z,44.06
2018-06-23T13:15:44.156Z,44.89
2018-06-23T13:18:14.321Z,44.73
2018-06-23T13:20:44.540Z,45.24
2018-06-23T13:23:14.670Z,46.36
2018-06-23T13:25:44.552Z,45.87
2018-06-23T13:28:14.737Z,44.62
2018-06-23T13:30:44.800Z,45.41
2018-06-23T13:33:14.796Z,45.89
2018-06-23T13:35:44.982Z,45.77
2018-06-23T13:38:15.233Z,45.94
2018-06-23T13:40:45.322Z,47.17
2018-06-23T13:43:15.319Z,47.02
2018-06-23T13:45:45.804Z,47.58
2018-06-23T13:48:15.953Z,48.99
2018-06-23T13:50:46.051Z,48.33
2018-06-23T13:53:16.144Z,48.16
2018-06-23T13:55:46.076Z,50.25
2018-06-23T13:58:16.027Z,49.57
2018-06-23T14:00:45.966Z,50.23
2018-06-23T14:03:17.052Z,50.39
2018-06-23T14:05:46.974Z,49.80
2018-06-23T14:08:16.908Z,51.01
2018-06-23T14:10:46.992Z,50.06
2018-06-23T14:13:17.632Z,49.98
2018-06-23T14:15:47.708Z,50.10
2018-06-23T14:18:17.784Z,49.12
2018-06-23T14:20:49.040Z,50.21
2018-06-23T14:23:19.464Z,50.33
2018-06-23T14:25:49.425Z,50.49
2018-06-23T14:28:19.549Z,50.29
2018-06-23T14:30:49.532Z,50.17
2018-06-23T14:33:19.550Z,50.74
2018-06-23T14:35:49.434Z,50.09
2018-06-23T14:38:19.827Z,49.07
2018-06-23T14:40:49.966Z,48.94
2018-06-23T14:43:19.901Z,48.75
2018-06-23T14:45:49.888Z,47.76
2018-06-23T14:48:20.128Z,48.21
2018-06-23T14:50:50.237Z,47.39
2018-06-23T14:53:20.269Z,47.36
2018-06-23T14:55:50.816Z,46.59
2018-06-23T14:58:20.800Z,46.31
2018-06-23T15:00:50.683Z,45.72
2018-06-23T15:03:21.212Z,44.59
2018-06-23T15:05:51.457Z,42.18
2018-06-23T15:08:32.672Z,41.32
2018-06-23T15:11:13.381Z,43.39
2018-06-23T15:13:43.070Z,44.43
2018-06-23T15:16:13.056Z,41.37
2018-06-23T15:18:43.601Z,40.87
2018-06-23T15:21:14.179Z,39.69
2018-06-23T15:23:45.098Z,40.45
2018-06-23T15:26:15.068Z,39.71
2018-06-23T15:28:44.980Z,39.05
2018-06-23T15:31:14.861Z,40.54
2018-06-23T15:33:44.740Z,41.38
2018-06-23T15:36:14.820Z,40.65
2018-06-23T15:38:45.130Z,40.24
2018-06-23T15:41:15.141Z,43.24
2018-06-23T15:43:45.457Z,44.27
2018-06-23T15:46:15.479Z,44.50
2018-06-23T15:48:45.833Z,44.33
2018-06-23T15:51:15.689Z,45.26
2018-06-23T15:53:45.681Z,43.68
2018-06-23T15:56:15.555Z,41.96
2018-06-23T15:58:45.538Z,42.17
2018-06-23T16:01:15.491Z,42.34
2018-06-23T16:03:45.399Z,45.62
2018-06-23T16:06:15.406Z,44.97
2018-06-23T16:08:45.371Z,44.22
2018-06-23T16:11:15.409Z,42.36
2018-06-23T16:13:45.360Z,41.34
2018-06-23T16:16:15.287Z,39.19
2018-06-23T16:18:45.256Z,37.45
2018-06-23T16:21:15.295Z,39.03
2018-06-23T16:23:45.610Z,39.03
2018-06-23T16:26:16.650Z,36.64
2018-06-23T16:28:46.580Z,35.39
2018-06-23T16:31:16.888Z,35.53
2018-06-23T16:33:47.231Z,35.85
2018-06-23T16:36:17.499Z,39.77
2018-06-23T16:38:48.468Z,38.52
2018-06-23T16:41:18.361Z,38.94
2018-06-23T16:43:48.380Z,41.08
2018-06-23T16:46:18.329Z,41.18
2018-06-23T16:48:48.296Z,41.94
2018-06-23T16:51:18.255Z,42.59
2018-06-23T16:53:48.351Z,43.24
2018-06-23T16:56:18.273Z,43.05
2018-06-23T16:58:48.243Z,43.25
2018-06-23T17:01:18.132Z,43.75
2018-06-23T17:03:48.088Z,43.88
2018-06-23T17:06:17.898Z,42.62
2018-06-23T17:08:47.848Z,41.66
2018-06-23T17:11:17.761Z,41.47
2018-06-23T17:13:48.076Z,42.47
2018-06-23T17:16:18.124Z,41.90
2018-06-23T17:18:47.979Z,43.72
2018-06-23T17:21:17.924Z,41.47
2018-06-23T17:23:47.971Z,42.21
2018-06-23T17:26:17.961Z,42.30
2018-06-23T17:28:47.871Z,42.17
2018-06-23T17:31:17.977Z,42.76
2018-06-23T17:33:47.945Z,42.27
2018-06-23T17:36:17.947Z,41.44
2018-06-23T17:38:47.949Z,40.80
2018-06-23T17:41:17.838Z,41.92
2018-06-23T17:43:47.751Z,44.24
2018-06-23T17:46:17.697Z,45.42
2018-06-23T17:48:47.609Z,45.46
2018-06-23T17:51:17.705Z,46.71
2018-06-23T17:53:47.905Z,46.66
2018-06-23T17:56:17.988Z,46.31
2018-06-23T17:58:48.052Z,46.94
2018-06-23T18:01:18.293Z,47.14
2018-06-23T18:03:48.439Z,47.21
2018-06-23T18:06:18.534Z,47.81
2018-06-23T18:08:48.457Z,48.20
2018-06-23T18:11:18.460Z,48.14
2018-06-23T18:13:48.426Z,49.04
2018-06-23T18:16:18.433Z,48.22
2018-06-23T18:18:48.418Z,48.39
2018-06-23T18:21:18.429Z,48.57
2018-06-23T18:23:48.645Z,49.32
2018-06-23T18:26:18.585Z,49.59
2018-06-23T18:28:48.533Z,48.84
2018-06-23T18:31:18.899Z,48.50
2018-06-23T18:33:48.859Z,47.88
2018-06-23T18:36:18.991Z,48.48
2018-06-23T18:38:49.246Z,48.92
2018-06-23T18:41:19.157Z,48.86
2018-06-23T18:43:49.011Z,48.32
2018-06-23T18:46:18.899Z,48.92
2018-06-23T18:48:49.876Z,49.71
2018-06-23T18:51:20.097Z,49.13
2018-06-23T18:53:50.105Z,48.68
2018-06-23T18:56:20.044Z,49.41
2018-06-23T18:58:50.243Z,49.74
2018-06-23T19:01:20.212Z,49.08
2018-06-23T19:03:50.131Z,49.83
2018-06-23T19:06:20.304Z,49.49
2018-06-23T19:08:50.511Z,50.37
2018-06-23T19:11:20.584Z,49.25
2018-06-23T19:13:50.599Z,50.41
2018-06-23T19:16:20.649Z,50.18
2018-06-23T19:18:50.671Z,48.93
2018-06-23T19:21:20.620Z,50.59
2018-06-23T19:23:51.027Z,49.82
2018-06-23T19:26:21.239Z,49.52
2018-06-23T19:28:51.407Z,48.97
2018-06-23T19:31:21.375Z,49.37
2018-06-23T19:33:51.290Z,50.45
2018-06-23T19:36:21.425Z,50.37
2018-06-23T19:38:51.400Z,50.66
2018-06-23T19:41:25.610Z,50.29
2018-06-23T19:43:55.638Z,50.84
2018-06-23T19:46:25.680Z,51.15
2018-06-23T19:48:55.622Z,51.33
2018-06-23T19:51:25.941Z,51.85
2018-06-23T19:53:55.949Z,51.31
2018-06-23T19:56:25.966Z,50.41
2018-06-23T19:58:55.862Z,51.74
2018-06-23T20:01:26.576Z,51.52
2018-06-23T20:03:56.481Z,51.38
2018-06-23T20:06:26.680Z,52.78
2018-06-23T20:08:56.569Z,53.05
2018-06-23T20:11:26.835Z,52.48
2018-06-23T20:13:56.824Z,52.68
2018-06-23T20:16:26.819Z,53.08
2018-06-23T20:18:56.785Z,53.00
2018-06-23T20:21:26.701Z,52.22
2018-06-23T20:23:57.867Z,51.56
2018-06-23T20:26:27.897Z,52.15
2018-06-23T20:28:57.830Z,52.92
2018-06-23T20:31:27.799Z,53.28
2018-06-23T20:33:58.061Z,53.64
2018-06-23T20:36:28.031Z,54.78
2018-06-23T20:38:58.051Z,55.68
2018-06-23T20:41:28.062Z,57.82
2018-06-23T20:43:58.461Z,54.41
2018-06-23T20:46:28.484Z,55.80
2018-06-23T20:48:58.387Z,56.04
2018-06-23T20:51:28.843Z,53.90
2018-06-23T20:53:58.699Z,52.92
2018-06-23T20:56:28.680Z,53.11
2018-06-23T20:58:58.512Z,53.21
2018-06-23T21:01:28.697Z,54.78
2018-06-23T21:03:58.604Z,53.20
2018-06-23T21:06:28.728Z,53.73
2018-06-23T21:08:59.316Z,53.25
2018-06-23T21:11:29.781Z,53.17
2018-06-23T21:13:59.892Z,53.50
2018-06-23T21:16:29.946Z,53.01
2018-06-23T21:18:59.957Z,53.88
2018-06-23T21:21:29.901Z,53.51
2018-06-23T21:24:00.090Z,53.92
2018-06-23T21:26:30.079Z,54.37
2018-06-23T21:29:00.132Z,53.99
2018-06-23T21:31:30.072Z,53.09
2018-06-23T21:33:59.963Z,53.31
2018-06-23T21:36:29.916Z,53.79
2018-06-23T21:39:00.144Z,53.73
2018-06-23T21:41:30.155Z,52.80
2018-06-23T21:44:00.207Z,52.37
2018-06-23T21:46:30.324Z,51.97
2018-06-23T21:49:00.712Z,52.50
2018-06-23T21:51:31.166Z,52.23
2018-06-23T21:54:01.281Z,52.80
2018-06-23T21:56:31.545Z,51.72
2018-06-23T21:59:02.164Z,52.10
2018-06-23T22:01:32.248Z,51.93
2018-06-23T22:04:02.281Z,51.85
2018-06-23T22:06:32.321Z,52.26
2018-06-23T22:09:02.294Z,51.82
2018-06-23T22:11:32.197Z,51.70
2018-06-23T22:14:02.104Z,51.86
2018-06-23T22:16:32.298Z,51.03
2018-06-23T22:19:02.319Z,50.96
2018-06-23T22:21:32.336Z,50.33
2018-06-23T22:24:02.935Z,51.29
2018-06-23T22:26:33.644Z,50.76
2018-06-23T22:29:03.733Z,50.97
2018-06-23T22:31:33.776Z,50.44
2018-06-23T22:34:04.046Z,50.53
2018-06-23T22:36:34.103Z,50.46
2018-06-23T22:39:05.456Z,50.11
2018-06-23T22:41:35.533Z,50.13
2018-06-23T22:44:06.311Z,49.74
2018-06-23T22:46:36.641Z,49.62
2018-06-23T22:49:06.669Z,49.86
2018-06-23T22:51:36.664Z,49.15
2018-06-23T22:54:06.785Z,48.81
2018-06-23T22:56:37.086Z,48.87
2018-06-23T22:59:07.379Z,48.91
2018-06-23T23:01:37.632Z,48.65
2018-06-23T23:04:07.593Z,48.61
2018-06-23T23:06:37.957Z,48.87
2018-06-23T23:09:09.849Z,49.49
2018-06-23T23:11:39.752Z,49.84
2018-06-23T23:14:09.884Z,49.80
2018-06-23T23:16:39.826Z,49.93
2018-06-23T23:19:10.006Z,49.64
2018-06-23T23:21:40.026Z,50.15
2018-06-23T23:24:10.073Z,50.07
2018-06-23T23:26:40.093Z,49.85
2018-06-23T23:29:10.018Z,50.41
2018-06-23T23:31:39.905Z,50.12
2018-06-23T23:34:10.117Z,50.09
2018-06-23T23:36:40.193Z,50.74
2018-06-23T23:39:11.256Z,50.67
2018-06-23T23:41:41.176Z,51.07
2018-06-23T23:44:11.127Z,51.45
2018-06-23T23:46:41.144Z,51.79
2018-06-23T23:49:11.074Z,50.76
2018-06-23T23:51:41.038Z,50.89
2018-06-23T23:54:10.922Z,50.94
2018-06-23T23:56:40.777Z,50.70
2018-06-23T23:59:10.749Z,51.14
